sensor_id;sensor_type;location;lat;lon;timestamp;P1;durP1;ratioP1;P2;durP2;ratioP2
19554;SDS011;9924;50.828;6.440;2023-03-14T00:02:29;8.80;;;1.75;;
19554;SDS011;9924;50.828;6.440;2023-03-14T00:05:13;9.70;;;1.35;;
19554;SDS011;9924;50.828;6.440;2023-03-14T00:07:58;6.50;;;1.33;;
19554;SDS011;9924;50.828;6.440;2023-03-14T00:10:42;7.63;;;1.83;;
19554;SDS011;9924;50.828;6.440;2023-03-14T00:13:26;5.45;;;1.65;;
19554;SDS011;9924;50.828;6.440;2023-03-14T00:16:11;4.90;;;1.40;;
19554;SDS011;9924;50.828;6.440;2023-03-14T00:18:58;6.55;;;1.65;;
19554;SDS011;9924;50.828;6.440;2023-03-14T00:21:42;4.65;;;1.30;;
19554;SDS011;9924;50.828;6.440;2023-03-14T00:24:27;3.72;;;1.38;;
19554;SDS011;9924;50.828;6.440;2023-03-14T00:27:11;5.45;;;1.15;;
19554;SDS011;9924;50.828;6.440;2023-03-14T00:29:56;11.90;;;1.38;;
19554;SDS011;9924;50.828;6.440;2023-03-14T00:32:40;5.20;;;1.38;;
19554;SDS011;9924;50.828;6.440;2023-03-14T00:35:25;8.18;;;1.20;;
19554;SDS011;9924;50.828;6.440;2023-03-14T00:38:09;6.97;;;1.65;;
19554;SDS011;9924;50.828;6.440;2023-03-14T00:40:54;4.88;;;1.48;;
19554;SDS011;9924;50.828;6.440;2023-03-14T00:43:38;9.85;;;1.98;;
19554;SDS011;9924;50.828;6.440;2023-03-14T00:46:22;12.30;;;1.90;;
19554;SDS011;9924;50.828;6.440;2023-03-14T00:49:07;8.90;;;0.98;;
19554;SDS011;9924;50.828;6.440;2023-03-14T00:51:51;8.25;;;1.50;;
19554;SDS011;9924;50.828;6.440;2023-03-14T00:54:36;2.97;;;0.90;;
19554;SDS011;9924;50.828;6.440;2023-03-14T00:57:20;4.50;;;1.10;;
19554;SDS011;9924;50.828;6.440;2023-03-14T01:00:05;5.28;;;0.88;;
19554;SDS011;9924;50.828;6.440;2023-03-14T01:02:51;4.65;;;1.20;;
19554;SDS011;9924;50.828;6.440;2023-03-14T01:05:36;5.38;;;1.00;;
19554;SDS011;9924;50.828;6.440;2023-03-14T01:08:21;6.97;;;1.00;;
19554;SDS011;9924;50.828;6.440;2023-03-14T01:11:07;3.38;;;0.98;;
19554;SDS011;9924;50.828;6.440;2023-03-14T01:13:56;2.60;;;0.90;;
19554;SDS011;9924;50.828;6.440;2023-03-14T01:16:40;4.80;;;1.05;;
19554;SDS011;9924;50.828;6.440;2023-03-14T01:19:25;5.55;;;1.27;;
19554;SDS011;9924;50.828;6.440;2023-03-14T01:22:09;3.65;;;0.80;;
19554;SDS011;9924;50.828;6.440;2023-03-14T01:24:53;4.18;;;0.80;;
19554;SDS011;9924;50.828;6.440;2023-03-14T01:27:37;3.38;;;0.50;;
19554;SDS011;9924;50.828;6.440;2023-03-14T01:30:22;6.53;;;0.90;;
19554;SDS011;9924;50.828;6.440;2023-03-14T01:33:06;4.95;;;0.90;;
19554;SDS011;9924;50.828;6.440;2023-03-14T01:35:51;3.80;;;0.88;;
19554;SDS011;9924;50.828;6.440;2023-03-14T01:38:35;5.22;;;0.98;;
19554;SDS011;9924;50.828;6.440;2023-03-14T01:41:22;4.95;;;0.80;;
19554;SDS011;9924;50.828;6.440;2023-03-14T01:44:09;3.60;;;0.88;;
19554;SDS011;9924;50.828;6.440;2023-03-14T01:46:55;5.93;;;1.20;;
19554;SDS011;9924;50.828;6.440;2023-03-14T01:49:40;4.10;;;0.77;;
19554;SDS011;9924;50.828;6.440;2023-03-14T01:52:27;4.05;;;1.10;;
19554;SDS011;9924;50.828;6.440;2023-03-14T01:55:17;4.78;;;1.00;;
19554;SDS011;9924;50.828;6.440;2023-03-14T01:58:05;4.88;;;0.95;;
19554;SDS011;9924;50.828;6.440;2023-03-14T02:00:49;3.08;;;0.75;;
19554;SDS011;9924;50.828;6.440;2023-03-14T02:03:35;3.20;;;0.88;;
19554;SDS011;9924;50.828;6.440;2023-03-14T02:07:06;2.20;;;0.75;;
19554;SDS011;9924;50.828;6.440;2023-03-14T02:09:49;5.15;;;0.90;;
19554;SDS011;9924;50.828;6.440;2023-03-14T02:12:35;2.20;;;1.13;;
19554;SDS011;9924;50.828;6.440;2023-03-14T02:15:20;5.88;;;1.23;;
19554;SDS011;9924;50.828;6.440;2023-03-14T02:18:05;7.53;;;1.60;;
19554;SDS011;9924;50.828;6.440;2023-03-14T02:21:05;4.53;;;1.20;;
19554;SDS011;9924;50.828;6.440;2023-03-14T02:32:45;7.43;;;1.02;;
19554;SDS011;9924;50.828;6.440;2023-03-14T02:35:36;5.97;;;1.10;;
19554;SDS011;9924;50.828;6.440;2023-03-14T02:38:29;6.25;;;1.90;;
19554;SDS011;9924;50.828;6.440;2023-03-14T02:41:19;4.32;;;1.10;;
19554;SDS011;9924;50.828;6.440;2023-03-14T02:44:03;12.90;;;1.70;;
19554;SDS011;9924;50.828;6.440;2023-03-14T02:46:48;6.20;;;1.25;;
19554;SDS011;9924;50.828;6.440;2023-03-14T02:49:32;6.50;;;1.40;;
19554;SDS011;9924;50.828;6.440;2023-03-14T02:52:18;11.25;;;1.63;;
19554;SDS011;9924;50.828;6.440;2023-03-14T02:55:02;8.68;;;1.42;;
19554;SDS011;9924;50.828;6.440;2023-03-14T02:57:47;4.75;;;1.42;;
19554;SDS011;9924;50.828;6.440;2023-03-14T03:00:31;8.13;;;1.75;;
19554;SDS011;9924;50.828;6.440;2023-03-14T03:03:17;9.05;;;1.50;;
19554;SDS011;9924;50.828;6.440;2023-03-14T03:06:01;7.97;;;1.55;;
19554;SDS011;9924;50.828;6.440;2023-03-14T03:08:46;5.40;;;1.50;;
19554;SDS011;9924;50.828;6.440;2023-03-14T03:11:30;6.10;;;1.33;;
19554;SDS011;9924;50.828;6.440;2023-03-14T03:14:15;9.60;;;1.70;;
19554;SDS011;9924;50.828;6.440;2023-03-14T03:16:59;5.70;;;1.50;;
19554;SDS011;9924;50.828;6.440;2023-03-14T03:19:43;3.72;;;1.55;;
19554;SDS011;9924;50.828;6.440;2023-03-14T03:22:28;5.82;;;1.70;;
19554;SDS011;9924;50.828;6.440;2023-03-14T03:25:12;7.00;;;1.30;;
19554;SDS011;9924;50.828;6.440;2023-03-14T03:27:57;3.38;;;1.40;;
19554;SDS011;9924;50.828;6.440;2023-03-14T03:30:41;4.80;;;1.65;;
19554;SDS011;9924;50.828;6.440;2023-03-14T03:33:26;6.93;;;1.27;;
19554;SDS011;9924;50.828;6.440;2023-03-14T03:36:11;4.82;;;1.27;;
19554;SDS011;9924;50.828;6.440;2023-03-14T03:38:55;8.00;;;1.23;;
19554;SDS011;9924;50.828;6.440;2023-03-14T03:41:40;5.28;;;1.00;;
19554;SDS011;9924;50.828;6.440;2023-03-14T03:44:24;2.20;;;0.50;;
19554;SDS011;9924;50.828;6.440;2023-03-14T03:47:08;3.78;;;1.00;;
19554;SDS011;9924;50.828;6.440;2023-03-14T03:49:53;2.50;;;0.60;;
19554;SDS011;9924;50.828;6.440;2023-03-14T03:52:37;1.75;;;0.50;;
19554;SDS011;9924;50.828;6.440;2023-03-14T03:55:22;0.95;;;0.35;;
19554;SDS011;9924;50.828;6.440;2023-03-14T03:58:06;2.47;;;0.60;;
19554;SDS011;9924;50.828;6.440;2023-03-14T04:00:50;0.85;;;0.47;;
19554;SDS011;9924;50.828;6.440;2023-03-14T04:03:35;1.35;;;0.40;;
19554;SDS011;9924;50.828;6.440;2023-03-14T04:06:22;2.78;;;0.50;;
19554;SDS011;9924;50.828;6.440;2023-03-14T04:09:07;1.33;;;0.30;;
19554;SDS011;9924;50.828;6.440;2023-03-14T04:11:52;1.63;;;0.40;;
19554;SDS011;9924;50.828;6.440;2023-03-14T04:14:37;1.50;;;0.40;;
19554;SDS011;9924;50.828;6.440;2023-03-14T04:17:21;1.00;;;0.38;;
19554;SDS011;9924;50.828;6.440;2023-03-14T04:20:06;0.52;;;0.30;;
19554;SDS011;9924;50.828;6.440;2023-03-14T04:22:54;1.55;;;0.50;;
19554;SDS011;9924;50.828;6.440;2023-03-14T04:25:38;0.93;;;0.40;;
19554;SDS011;9924;50.828;6.440;2023-03-14T04:28:23;0.38;;;0.30;;
19554;SDS011;9924;50.828;6.440;2023-03-14T04:31:07;0.40;;;0.40;;
19554;SDS011;9924;50.828;6.440;2023-03-14T04:33:52;0.75;;;0.43;;
19554;SDS011;9924;50.828;6.440;2023-03-14T04:36:37;0.60;;;0.35;;
19554;SDS011;9924;50.828;6.440;2023-03-14T04:39:21;0.22;;;0.22;;
19554;SDS011;9924;50.828;6.440;2023-03-14T04:42:05;0.20;;;0.20;;
19554;SDS011;9924;50.828;6.440;2023-03-14T04:44:50;1.75;;;0.30;;
19554;SDS011;9924;50.828;6.440;2023-03-14T04:47:34;1.23;;;0.32;;
19554;SDS011;9924;50.828;6.440;2023-03-14T04:50:19;0.50;;;0.20;;
19554;SDS011;9924;50.828;6.440;2023-03-14T04:53:03;0.95;;;0.20;;
19554;SDS011;9924;50.828;6.440;2023-03-14T04:55:50;0.25;;;0.10;;
19554;SDS011;9924;50.828;6.440;2023-03-14T04:58:36;1.20;;;0.20;;
19554;SDS011;9924;50.828;6.440;2023-03-14T05:01:21;0.20;;;0.20;;
19554;SDS011;9924;50.828;6.440;2023-03-14T05:04:05;0.15;;;0.10;;
19554;SDS011;9924;50.828;6.440;2023-03-14T05:06:49;0.10;;;0.10;;
19554;SDS011;9924;50.828;6.440;2023-03-14T05:09:34;0.65;;;0.20;;
19554;SDS011;9924;50.828;6.440;2023-03-14T05:12:18;0.55;;;0.20;;
19554;SDS011;9924;50.828;6.440;2023-03-14T05:15:06;0.17;;;0.17;;
19554;SDS011;9924;50.828;6.440;2023-03-14T05:17:51;0.20;;;0.20;;
19554;SDS011;9924;50.828;6.440;2023-03-14T05:20:35;0.40;;;0.20;;
19554;SDS011;9924;50.828;6.440;2023-03-14T05:23:20;0.10;;;0.10;;
19554;SDS011;9924;50.828;6.440;2023-03-14T05:26:04;0.40;;;0.32;;
19554;SDS011;9924;50.828;6.440;2023-03-14T05:28:49;0.10;;;0.10;;
19554;SDS011;9924;50.828;6.440;2023-03-14T05:31:33;0.10;;;0.10;;
19554;SDS011;9924;50.828;6.440;2023-03-14T05:34:18;0.22;;;0.20;;
19554;SDS011;9924;50.828;6.440;2023-03-14T05:37:02;0.17;;;0.17;;
19554;SDS011;9924;50.828;6.440;2023-03-14T05:39:46;0.45;;;0.20;;
19554;SDS011;9924;50.828;6.440;2023-03-14T05:42:31;0.80;;;0.30;;
19554;SDS011;9924;50.828;6.440;2023-03-14T05:45:16;0.60;;;0.17;;
19554;SDS011;9924;50.828;6.440;2023-03-14T05:48:01;0.13;;;0.10;;
19554;SDS011;9924;50.828;6.440;2023-03-14T05:50:45;0.10;;;0.10;;
19554;SDS011;9924;50.828;6.440;2023-03-14T05:53:29;0.10;;;0.10;;
19554;SDS011;9924;50.828;6.440;2023-03-14T05:56:17;0.10;;;0.10;;
19554;SDS011;9924;50.828;6.440;2023-03-14T05:59:01;0.10;;;0.10;;
19554;SDS011;9924;50.828;6.440;2023-03-14T06:01:46;0.10;;;0.10;;
19554;SDS011;9924;50.828;6.440;2023-03-14T06:04:31;0.40;;;0.20;;
19554;SDS011;9924;50.828;6.440;2023-03-14T06:07:15;0.10;;;0.10;;
19554;SDS011;9924;50.828;6.440;2023-03-14T06:09:59;0.13;;;0.10;;
19554;SDS011;9924;50.828;6.440;2023-03-14T06:12:44;0.10;;;0.10;;
19554;SDS011;9924;50.828;6.440;2023-03-14T06:15:28;0.10;;;0.10;;
19554;SDS011;9924;50.828;6.440;2023-03-14T06:18:16;0.15;;;0.15;;
19554;SDS011;9924;50.828;6.440;2023-03-14T06:21:00;0.20;;;0.20;;
19554;SDS011;9924;50.828;6.440;2023-03-14T06:23:45;0.20;;;0.20;;
19554;SDS011;9924;50.828;6.440;2023-03-14T06:26:29;0.10;;;0.10;;
19554;SDS011;9924;50.828;6.440;2023-03-14T06:29:13;1.17;;;0.10;;
19554;SDS011;9924;50.828;6.440;2023-03-14T06:31:58;0.17;;;0.17;;
19554;SDS011;9924;50.828;6.440;2023-03-14T06:34:42;0.10;;;0.10;;
19554;SDS011;9924;50.828;6.440;2023-03-14T06:37:27;0.15;;;0.10;;
19554;SDS011;9924;50.828;6.440;2023-03-14T06:40:12;0.13;;;0.10;;
19554;SDS011;9924;50.828;6.440;2023-03-14T06:43:00;0.10;;;0.10;;
19554;SDS011;9924;50.828;6.440;2023-03-14T06:45:44;0.10;;;0.10;;
19554;SDS011;9924;50.828;6.440;2023-03-14T06:48:30;0.43;;;0.15;;
19554;SDS011;9924;50.828;6.440;2023-03-14T06:51:14;0.10;;;0.10;;
19554;SDS011;9924;50.828;6.440;2023-03-14T06:53:59;0.10;;;0.10;;
19554;SDS011;9924;50.828;6.440;2023-03-14T06:56:43;0.10;;;0.10;;
19554;SDS011;9924;50.828;6.440;2023-03-14T06:59:28;0.20;;;0.13;;
19554;SDS011;9924;50.828;6.440;2023-03-14T07:02:12;0.47;;;0.10;;
19554;SDS011;9924;50.828;6.440;2023-03-14T07:04:57;2.42;;;0.20;;
19554;SDS011;9924;50.828;6.440;2023-03-14T07:07:41;0.10;;;0.10;;
19554;SDS011;9924;50.828;6.440;2023-03-14T07:10:25;0.20;;;0.20;;
19554;SDS011;9924;50.828;6.440;2023-03-14T07:13:10;0.35;;;0.20;;
19554;SDS011;9924;50.828;6.440;2023-03-14T07:15:54;0.10;;;0.10;;
19554;SDS011;9924;50.828;6.440;2023-03-14T07:18:39;0.30;;;0.20;;
19554;SDS011;9924;50.828;6.440;2023-03-14T07:21:23;0.50;;;0.10;;
19554;SDS011;9924;50.828;6.440;2023-03-14T07:24:08;0.40;;;0.20;;
19554;SDS011;9924;50.828;6.440;2023-03-14T07:26:52;0.17;;;0.17;;
19554;SDS011;9924;50.828;6.440;2023-03-14T07:29:37;0.10;;;0.10;;
19554;SDS011;9924;50.828;6.440;2023-03-14T07:32:21;0.20;;;0.20;;
19554;SDS011;9924;50.828;6.440;2023-03-14T07:35:06;0.30;;;0.10;;
19554;SDS011;9924;50.828;6.440;2023-03-14T07:37:53;0.20;;;0.20;;
19554;SDS011;9924;50.828;6.440;2023-03-14T07:40:38;0.38;;;0.17;;
19554;SDS011;9924;50.828;6.440;2023-03-14T07:43:22;0.10;;;0.10;;
19554;SDS011;9924;50.828;6.440;2023-03-14T07:46:07;0.10;;;0.10;;
19554;SDS011;9924;50.828;6.440;2023-03-14T07:48:51;0.70;;;0.30;;
19554;SDS011;9924;50.828;6.440;2023-03-14T07:51:36;0.30;;;0.20;;
19554;SDS011;9924;50.828;6.440;2023-03-14T07:54:20;0.32;;;0.22;;
19554;SDS011;9924;50.828;6.440;2023-03-14T07:57:04;0.20;;;0.20;;
19554;SDS011;9924;50.828;6.440;2023-03-14T07:59:49;0.85;;;0.30;;
19554;SDS011;9924;50.828;6.440;2023-03-14T08:02:35;1.40;;;0.30;;
19554;SDS011;9924;50.828;6.440;2023-03-14T08:05:20;0.30;;;0.30;;
19554;SDS011;9924;50.828;6.440;2023-03-14T08:08:05;0.40;;;0.30;;
19554;SDS011;9924;50.828;6.440;2023-03-14T08:10:49;0.38;;;0.30;;
19554;SDS011;9924;50.828;6.440;2023-03-14T08:13:34;0.57;;;0.30;;
19554;SDS011;9924;50.828;6.440;2023-03-14T08:16:19;0.90;;;0.35;;
19554;SDS011;9924;50.828;6.440;2023-03-14T08:19:03;0.82;;;0.35;;
19554;SDS011;9924;50.828;6.440;2023-03-14T08:21:47;0.93;;;0.40;;
19554;SDS011;9924;50.828;6.440;2023-03-14T08:24:32;1.70;;;0.60;;
19554;SDS011;9924;50.828;6.440;2023-03-14T08:27:16;2.58;;;0.43;;
19554;SDS011;9924;50.828;6.440;2023-03-14T08:30:00;1.15;;;0.55;;
19554;SDS011;9924;50.828;6.440;2023-03-14T08:32:45;2.03;;;0.70;;
19554;SDS011;9924;50.828;6.440;2023-03-14T08:35:29;2.50;;;0.73;;
19554;SDS011;9924;50.828;6.440;2023-03-14T08:38:14;0.45;;;0.35;;
19554;SDS011;9924;50.828;6.440;2023-03-14T08:40:59;2.35;;;0.60;;
19554;SDS011;9924;50.828;6.440;2023-03-14T08:43:45;0.88;;;0.40;;
19554;SDS011;9924;50.828;6.440;2023-03-14T08:46:29;1.33;;;0.30;;
19554;SDS011;9924;50.828;6.440;2023-03-14T08:49:14;1.73;;;0.55;;
19554;SDS011;9924;50.828;6.440;2023-03-14T08:51:58;0.88;;;0.52;;
19554;SDS011;9924;50.828;6.440;2023-03-14T08:54:43;0.68;;;0.43;;
19554;SDS011;9924;50.828;6.440;2023-03-14T08:57:28;1.10;;;0.60;;
19554;SDS011;9924;50.828;6.440;2023-03-14T09:00:13;2.03;;;0.50;;
19554;SDS011;9924;50.828;6.440;2023-03-14T09:02:58;0.80;;;0.57;;
19554;SDS011;9924;50.828;6.440;2023-03-14T09:05:43;1.50;;;0.60;;
19554;SDS011;9924;50.828;6.440;2023-03-14T09:08:27;3.90;;;0.70;;
19554;SDS011;9924;50.828;6.440;2023-03-14T09:11:12;2.40;;;0.68;;
19554;SDS011;9924;50.828;6.440;2023-03-14T09:13:57;1.15;;;0.35;;
19554;SDS011;9924;50.828;6.440;2023-03-14T09:16:42;0.40;;;0.40;;
19554;SDS011;9924;50.828;6.440;2023-03-14T09:19:26;0.47;;;0.45;;
19554;SDS011;9924;50.828;6.440;2023-03-14T09:22:11;2.25;;;0.70;;
19554;SDS011;9924;50.828;6.440;2023-03-14T09:24:55;1.88;;;0.55;;
19554;SDS011;9924;50.828;6.440;2023-03-14T09:27:39;2.65;;;0.60;;
19554;SDS011;9924;50.828;6.440;2023-03-14T09:30:24;0.93;;;0.60;;
19554;SDS011;9924;50.828;6.440;2023-03-14T09:33:08;0.85;;;0.77;;
19554;SDS011;9924;50.828;6.440;2023-03-14T09:35:52;1.83;;;1.00;;
19554;SDS011;9924;50.828;6.440;2023-03-14T09:38:37;1.73;;;0.70;;
19554;SDS011;9924;50.828;6.440;2023-03-14T09:44:18;0.98;;;0.50;;
19554;SDS011;9924;50.828;6.440;2023-03-14T09:47:14;1.00;;;0.47;;
19554;SDS011;9924;50.828;6.440;2023-03-14T09:50:00;1.75;;;0.50;;
19554;SDS011;9924;50.828;6.440;2023-03-14T09:52:45;0.60;;;0.50;;
19554;SDS011;9924;50.828;6.440;2023-03-14T09:55:33;1.05;;;0.55;;
19554;SDS011;9924;50.828;6.440;2023-03-14T09:58:19;1.25;;;0.50;;
19554;SDS011;9924;50.828;6.440;2023-03-14T10:01:04;1.35;;;0.68;;
19554;SDS011;9924;50.828;6.440;2023-03-14T10:03:56;2.22;;;0.75;;
19554;SDS011;9924;50.828;6.440;2023-03-14T10:06:45;2.35;;;1.02;;
19554;SDS011;9924;50.828;6.440;2023-03-14T10:09:31;3.03;;;0.50;;
19554;SDS011;9924;50.828;6.440;2023-03-14T10:12:17;1.20;;;0.70;;
19554;SDS011;9924;50.828;6.440;2023-03-14T10:15:09;1.75;;;0.77;;
19554;SDS011;9924;50.828;6.440;2023-03-14T10:17:55;2.70;;;0.70;;
19554;SDS011;9924;50.828;6.440;2023-03-14T10:20:44;1.08;;;0.77;;
19554;SDS011;9924;50.828;6.440;2023-03-14T10:23:31;2.78;;;1.10;;
19554;SDS011;9924;50.828;6.440;2023-03-14T10:26:20;3.08;;;0.85;;
19554;SDS011;9924;50.828;6.440;2023-03-14T10:29:11;2.38;;;0.82;;
19554;SDS011;9924;50.828;6.440;2023-03-14T10:32:01;2.25;;;0.77;;
19554;SDS011;9924;50.828;6.440;2023-03-14T10:35:03;3.20;;;1.00;;
19554;SDS011;9924;50.828;6.440;2023-03-14T10:37:49;3.35;;;1.00;;
19554;SDS011;9924;50.828;6.440;2023-03-14T10:40:37;2.80;;;1.33;;
19554;SDS011;9924;50.828;6.440;2023-03-14T10:43:34;1.85;;;1.40;;
19554;SDS011;9924;50.828;6.440;2023-03-14T10:46:20;1.60;;;1.20;;
19554;SDS011;9924;50.828;6.440;2023-03-14T10:49:07;4.78;;;1.42;;
19554;SDS011;9924;50.828;6.440;2023-03-14T10:55:13;4.10;;;1.63;;
19554;SDS011;9924;50.828;6.440;2023-03-14T10:57:57;2.08;;;1.30;;
19554;SDS011;9924;50.828;6.440;2023-03-14T11:00:42;4.20;;;1.45;;
19554;SDS011;9924;50.828;6.440;2023-03-14T11:03:27;2.08;;;1.00;;
19554;SDS011;9924;50.828;6.440;2023-03-14T11:06:18;1.90;;;1.20;;
19554;SDS011;9924;50.828;6.440;2023-03-14T11:09:27;3.97;;;1.40;;
19554;SDS011;9924;50.828;6.440;2023-03-14T11:12:51;3.35;;;0.93;;
19554;SDS011;9924;50.828;6.440;2023-03-14T11:18:56;1.77;;;1.08;;
19554;SDS011;9924;50.828;6.440;2023-03-14T11:22:21;4.00;;;1.45;;
19554;SDS011;9924;50.828;6.440;2023-03-14T11:25:37;2.60;;;1.60;;
19554;SDS011;9924;50.828;6.440;2023-03-14T11:34:12;3.47;;;0.82;;
19554;SDS011;9924;50.828;6.440;2023-03-14T11:37:23;2.20;;;0.93;;
19554;SDS011;9924;50.828;6.440;2023-03-14T11:40:25;2.60;;;1.25;;
19554;SDS011;9924;50.828;6.440;2023-03-14T11:43:13;2.17;;;1.25;;
19554;SDS011;9924;50.828;6.440;2023-03-14T11:46:21;4.40;;;1.27;;
19554;SDS011;9924;50.828;6.440;2023-03-14T11:52:03;1.40;;;0.60;;
19554;SDS011;9924;50.828;6.440;2023-03-14T11:55:15;5.43;;;0.57;;
19554;SDS011;9924;50.828;6.440;2023-03-14T11:58:23;1.02;;;0.70;;
19554;SDS011;9924;50.828;6.440;2023-03-14T12:01:11;0.85;;;0.50;;
19554;SDS011;9924;50.828;6.440;2023-03-14T12:04:07;1.55;;;0.50;;
19554;SDS011;9924;50.828;6.440;2023-03-14T12:07:00;1.73;;;0.60;;
19554;SDS011;9924;50.828;6.440;2023-03-14T12:09:51;1.60;;;0.88;;
19554;SDS011;9924;50.828;6.440;2023-03-14T12:12:37;2.20;;;1.00;;
19554;SDS011;9924;50.828;6.440;2023-03-14T12:15:22;1.90;;;0.90;;
19554;SDS011;9924;50.828;6.440;2023-03-14T12:21:18;1.52;;;0.90;;
19554;SDS011;9924;50.828;6.440;2023-03-14T12:24:24;1.60;;;1.00;;
19554;SDS011;9924;50.828;6.440;2023-03-14T12:27:13;2.35;;;1.20;;
19554;SDS011;9924;50.828;6.440;2023-03-14T12:30:35;4.55;;;0.82;;
19554;SDS011;9924;50.828;6.440;2023-03-14T12:33:20;4.55;;;1.02;;
19554;SDS011;9924;50.828;6.440;2023-03-14T12:36:12;2.83;;;1.15;;
19554;SDS011;9924;50.828;6.440;2023-03-14T12:48:14;5.72;;;1.25;;
19554;SDS011;9924;50.828;6.440;2023-03-14T12:51:13;5.15;;;1.00;;
19554;SDS011;9924;50.828;6.440;2023-03-14T13:00:55;9.13;;;2.17;;
19554;SDS011;9924;50.828;6.440;2023-03-14T13:03:46;3.90;;;1.58;;
19554;SDS011;9924;50.828;6.440;2023-03-14T13:09:35;7.10;;;1.55;;
19554;SDS011;9924;50.828;6.440;2023-03-14T13:12:40;7.15;;;1.38;;
19554;SDS011;9924;50.828;6.440;2023-03-14T13:15:38;6.15;;;1.20;;
19554;SDS011;9924;50.828;6.440;2023-03-14T13:21:20;4.90;;;1.60;;
19554;SDS011;9924;50.828;6.440;2023-03-14T13:24:29;6.82;;;1.40;;
19554;SDS011;9924;50.828;6.440;2023-03-14T13:27:18;4.75;;;1.40;;
19554;SDS011;9924;50.828;6.440;2023-03-14T13:30:21;4.60;;;1.38;;
19554;SDS011;9924;50.828;6.440;2023-03-14T13:33:11;4.75;;;1.27;;
19554;SDS011;9924;50.828;6.440;2023-03-14T13:36:03;5.97;;;1.73;;
19554;SDS011;9924;50.828;6.440;2023-03-14T13:38:55;7.43;;;1.48;;
19554;SDS011;9924;50.828;6.440;2023-03-14T13:41:41;5.18;;;1.55;;
19554;SDS011;9924;50.828;6.440;2023-03-14T13:44:36;7.43;;;1.90;;
19554;SDS011;9924;50.828;6.440;2023-03-14T13:47:23;8.73;;;2.30;;
19554;SDS011;9924;50.828;6.440;2023-03-14T13:50:18;8.63;;;2.10;;
19554;SDS011;9924;50.828;6.440;2023-03-14T13:53:02;14.02;;;2.20;;
19554;SDS011;9924;50.828;6.440;2023-03-14T13:55:47;12.02;;;2.80;;
19554;SDS011;9924;50.828;6.440;2023-03-14T13:58:31;11.48;;;2.80;;
19554;SDS011;9924;50.828;6.440;2023-03-14T14:01:19;15.00;;;3.38;;
19554;SDS011;9924;50.828;6.440;2023-03-14T14:04:08;13.82;;;3.70;;
19554;SDS011;9924;50.828;6.440;2023-03-14T14:06:59;19.70;;;4.78;;
19554;SDS011;9924;50.828;6.440;2023-03-14T14:09:47;8.52;;;2.38;;
19554;SDS011;9924;50.828;6.440;2023-03-14T14:12:38;11.32;;;2.60;;
19554;SDS011;9924;50.828;6.440;2023-03-14T14:15:34;10.93;;;2.47;;
19554;SDS011;9924;50.828;6.440;2023-03-14T14:18:25;12.73;;;2.60;;
19554;SDS011;9924;50.828;6.440;2023-03-14T14:21:11;13.50;;;2.55;;
19554;SDS011;9924;50.828;6.440;2023-03-14T14:23:58;9.65;;;1.92;;
19554;SDS011;9924;50.828;6.440;2023-03-14T14:26:51;11.65;;;2.00;;
19554;SDS011;9924;50.828;6.440;2023-03-14T14:29:37;14.05;;;2.13;;
19554;SDS011;9924;50.828;6.440;2023-03-14T14:32:22;17.67;;;1.90;;
19554;SDS011;9924;50.828;6.440;2023-03-14T14:35:08;12.90;;;1.98;;
19554;SDS011;9924;50.828;6.440;2023-03-14T14:37:54;7.32;;;2.15;;
19554;SDS011;9924;50.828;6.440;2023-03-14T14:40:43;10.88;;;2.33;;
19554;SDS011;9924;50.828;6.440;2023-03-14T14:43:30;11.60;;;2.38;;
19554;SDS011;9924;50.828;6.440;2023-03-14T14:46:20;11.05;;;2.10;;
19554;SDS011;9924;50.828;6.440;2023-03-14T14:49:15;10.60;;;1.83;;
19554;SDS011;9924;50.828;6.440;2023-03-14T14:55:31;16.00;;;2.33;;
19554;SDS011;9924;50.828;6.440;2023-03-14T14:58:23;8.75;;;2.38;;
19554;SDS011;9924;50.828;6.440;2023-03-14T15:01:16;12.50;;;1.95;;
19554;SDS011;9924;50.828;6.440;2023-03-14T15:04:01;11.13;;;2.08;;
19554;SDS011;9924;50.828;6.440;2023-03-14T15:06:52;13.68;;;2.50;;
19554;SDS011;9924;50.828;6.440;2023-03-14T15:09:37;11.15;;;2.53;;
19554;SDS011;9924;50.828;6.440;2023-03-14T15:12:25;15.27;;;2.50;;
19554;SDS011;9924;50.828;6.440;2023-03-14T15:15:10;11.40;;;2.20;;
19554;SDS011;9924;50.828;6.440;2023-03-14T15:17:55;13.48;;;2.22;;
19554;SDS011;9924;50.828;6.440;2023-03-14T15:20:39;11.93;;;2.58;;
19554;SDS011;9924;50.828;6.440;2023-03-14T15:23:24;8.90;;;2.13;;
19554;SDS011;9924;50.828;6.440;2023-03-14T15:26:11;11.63;;;3.40;;
19554;SDS011;9924;50.828;6.440;2023-03-14T15:28:58;15.68;;;2.72;;
19554;SDS011;9924;50.828;6.440;2023-03-14T15:31:43;11.77;;;2.63;;
19554;SDS011;9924;50.828;6.440;2023-03-14T15:34:27;8.80;;;2.40;;
19554;SDS011;9924;50.828;6.440;2023-03-14T15:37:12;11.20;;;2.35;;
19554;SDS011;9924;50.828;6.440;2023-03-14T15:39:59;14.13;;;3.30;;
19554;SDS011;9924;50.828;6.440;2023-03-14T15:42:43;11.32;;;2.70;;
19554;SDS011;9924;50.828;6.440;2023-03-14T15:45:29;8.10;;;2.75;;
19554;SDS011;9924;50.828;6.440;2023-03-14T15:48:18;17.48;;;2.97;;
19554;SDS011;9924;50.828;6.440;2023-03-14T15:51:04;13.02;;;2.38;;
19554;SDS011;9924;50.828;6.440;2023-03-14T15:53:49;13.75;;;2.85;;
19554;SDS011;9924;50.828;6.440;2023-03-14T15:56:35;10.88;;;2.60;;
19554;SDS011;9924;50.828;6.440;2023-03-14T15:59:19;12.82;;;2.35;;
19554;SDS011;9924;50.828;6.440;2023-03-14T16:02:03;15.00;;;2.75;;
19554;SDS011;9924;50.828;6.440;2023-03-14T16:04:48;10.18;;;2.70;;
19554;SDS011;9924;50.828;6.440;2023-03-14T16:07:32;14.45;;;3.70;;
19554;SDS011;9924;50.828;6.440;2023-03-14T16:10:16;12.15;;;3.70;;
19554;SDS011;9924;50.828;6.440;2023-03-14T16:13:01;13.23;;;2.75;;
19554;SDS011;9924;50.828;6.440;2023-03-14T16:15:52;13.23;;;2.55;;
19554;SDS011;9924;50.828;6.440;2023-03-14T16:18:44;9.90;;;2.13;;
19554;SDS011;9924;50.828;6.440;2023-03-14T16:21:28;12.43;;;2.00;;
19554;SDS011;9924;50.828;6.440;2023-03-14T16:24:13;8.30;;;2.03;;
19554;SDS011;9924;50.828;6.440;2023-03-14T16:26:57;4.93;;;1.05;;
19554;SDS011;9924;50.828;6.440;2023-03-14T16:29:41;8.10;;;1.60;;
19554;SDS011;9924;50.828;6.440;2023-03-14T16:32:26;5.70;;;1.70;;
19554;SDS011;9924;50.828;6.440;2023-03-14T16:35:10;9.65;;;1.63;;
19554;SDS011;9924;50.828;6.440;2023-03-14T16:37:54;12.80;;;1.95;;
19554;SDS011;9924;50.828;6.440;2023-03-14T16:40:42;10.27;;;1.88;;
19554;SDS011;9924;50.828;6.440;2023-03-14T16:43:27;8.75;;;2.75;;
19554;SDS011;9924;50.828;6.440;2023-03-14T16:46:13;15.57;;;3.30;;
19554;SDS011;9924;50.828;6.440;2023-03-14T16:49:02;17.85;;;4.53;;
19554;SDS011;9924;50.828;6.440;2023-03-14T16:51:46;9.77;;;4.38;;
19554;SDS011;9924;50.828;6.440;2023-03-14T16:54:31;12.35;;;4.65;;
19554;SDS011;9924;50.828;6.440;2023-03-14T16:57:16;14.18;;;4.13;;
19554;SDS011;9924;50.828;6.440;2023-03-14T17:00:00;16.50;;;3.40;;
19554;SDS011;9924;50.828;6.440;2023-03-14T17:02:45;12.00;;;4.20;;
19554;SDS011;9924;50.828;6.440;2023-03-14T17:05:30;16.02;;;3.75;;
19554;SDS011;9924;50.828;6.440;2023-03-14T17:08:15;9.73;;;2.95;;
19554;SDS011;9924;50.828;6.440;2023-03-14T17:11:00;10.30;;;2.22;;
19554;SDS011;9924;50.828;6.440;2023-03-14T17:13:44;9.23;;;1.77;;
19554;SDS011;9924;50.828;6.440;2023-03-14T17:16:29;8.32;;;2.10;;
19554;SDS011;9924;50.828;6.440;2023-03-14T17:19:13;6.97;;;1.83;;
19554;SDS011;9924;50.828;6.440;2023-03-14T17:21:58;7.25;;;1.55;;
19554;SDS011;9924;50.828;6.440;2023-03-14T17:24:42;3.33;;;1.13;;
19554;SDS011;9924;50.828;6.440;2023-03-14T17:27:27;9.02;;;1.65;;
19554;SDS011;9924;50.828;6.440;2023-03-14T17:30:12;7.60;;;1.13;;
19554;SDS011;9924;50.828;6.440;2023-03-14T17:32:57;3.78;;;1.20;;
19554;SDS011;9924;50.828;6.440;2023-03-14T17:35:42;4.00;;;1.10;;
19554;SDS011;9924;50.828;6.440;2023-03-14T17:38:26;6.10;;;0.90;;
19554;SDS011;9924;50.828;6.440;2023-03-14T17:41:11;6.90;;;1.40;;
19554;SDS011;9924;50.828;6.440;2023-03-14T17:43:57;6.57;;;1.20;;
19554;SDS011;9924;50.828;6.440;2023-03-14T17:46:41;11.25;;;1.80;;
19554;SDS011;9924;50.828;6.440;2023-03-14T17:49:26;5.35;;;1.15;;
19554;SDS011;9924;50.828;6.440;2023-03-14T17:52:11;5.57;;;1.25;;
19554;SDS011;9924;50.828;6.440;2023-03-14T17:54:55;5.80;;;1.20;;
19554;SDS011;9924;50.828;6.440;2023-03-14T17:57:40;6.75;;;1.25;;